sensor_id;sensor_type;location;lat;lon;timestamp;temperature;humidity
25438;DHT22;13364;49.084;9.978;2022-09-12T00:02:24;12.10;99.90
25438;DHT22;13364;49.084;9.978;2022-09-12T00:04:51;12.10;99.90
25438;DHT22;13364;49.084;9.978;2022-09-12T00:11:39;12.10;99.90
25438;DHT22;13364;49.084;9.978;2022-09-12T00:14:07;12.00;99.90
25438;DHT22;13364;49.084;9.978;2022-09-12T00:16:35;12.00;99.90
25438;DHT22;13364;49.084;9.978;2022-09-12T00:19:04;12.00;99.90
25438;DHT22;13364;49.084;9.978;2022-09-12T00:21:36;12.00;99.90
25438;DHT22;13364;49.084;9.978;2022-09-12T00:24:04;11.90;99.90
25438;DHT22;13364;49.084;9.978;2022-09-12T00:26:31;11.90;99.90
25438;DHT22;13364;49.084;9.978;2022-09-12T00:28:59;11.90;99.90
25438;DHT22;13364;49.084;9.978;2022-09-12T00:31:26;11.90;99.90
25438;DHT22;13364;49.084;9.978;2022-09-12T00:33:55;11.80;99.90
25438;DHT22;13364;49.084;9.978;2022-09-12T00:36:23;11.80;99.90
25438;DHT22;13364;49.084;9.978;2022-09-12T00:38:51;11.90;99.90
25438;DHT22;13364;49.084;9.978;2022-09-12T00:41:28;11.80;99.90
25438;DHT22;13364;49.084;9.978;2022-09-12T00:43:59;11.90;99.90
25438;DHT22;13364;49.084;9.978;2022-09-12T00:46:36;11.80;99.90
25438;DHT22;13364;49.084;9.978;2022-09-12T00:49:11;11.80;99.90
25438;DHT22;13364;49.084;9.978;2022-09-12T00:51:43;11.80;99.90
25438;DHT22;13364;49.084;9.978;2022-09-12T00:54:16;11.90;99.90
25438;DHT22;13364;49.084;9.978;2022-09-12T00:56:45;11.90;99.90
25438;DHT22;13364;49.084;9.978;2022-09-12T01:00:00;11.80;99.90
25438;DHT22;13364;49.084;9.978;2022-09-12T01:02:19;11.80;99.90
25438;DHT22;13364;49.084;9.978;2022-09-12T01:04:47;11.80;99.90
25438;DHT22;13364;49.084;9.978;2022-09-12T01:07:14;11.80;99.90
25438;DHT22;13364;49.084;9.978;2022-09-12T01:09:43;11.90;99.90
25438;DHT22;13364;49.084;9.978;2022-09-12T01:12:13;11.80;99.90
25438;DHT22;13364;49.084;9.978;2022-09-12T01:14:40;11.80;99.90
25438;DHT22;13364;49.084;9.978;2022-09-12T01:17:11;11.80;99.90
25438;DHT22;13364;49.084;9.978;2022-09-12T01:35:23;11.80;99.90
25438;DHT22;13364;49.084;9.978;2022-09-12T01:40:41;11.80;99.90
25438;DHT22;13364;49.084;9.978;2022-09-12T01:46:14;11.70;99.90
25438;DHT22;13364;49.084;9.978;2022-09-12T01:49:07;11.70;99.90
25438;DHT22;13364;49.084;9.978;2022-09-12T01:51:42;11.70;99.90
25438;DHT22;13364;49.084;9.978;2022-09-12T01:54:18;11.70;99.90
25438;DHT22;13364;49.084;9.978;2022-09-12T01:56:49;11.70;99.90
25438;DHT22;13364;49.084;9.978;2022-09-12T02:02:17;11.60;99.90
25438;DHT22;13364;49.084;9.978;2022-09-12T02:04:52;11.70;99.90
25438;DHT22;13364;49.084;9.978;2022-09-12T02:08:05;12.00;99.90
25438;DHT22;13364;49.084;9.978;2022-09-12T02:10:16;11.70;99.90
25438;DHT22;13364;49.084;9.978;2022-09-12T02:12:52;11.60;99.90
25438;DHT22;13364;49.084;9.978;2022-09-12T02:15:28;12.20;99.90
25438;DHT22;13364;49.084;9.978;2022-09-12T02:17:59;11.70;99.90
25438;DHT22;13364;49.084;9.978;2022-09-12T02:20:32;11.70;99.90
25438;DHT22;13364;49.084;9.978;2022-09-12T02:23:34;11.70;99.90
25438;DHT22;13364;49.084;9.978;2022-09-12T02:26:07;11.60;99.90
25438;DHT22;13364;49.084;9.978;2022-09-12T02:28:40;11.80;99.90
25438;DHT22;13364;49.084;9.978;2022-09-12T02:31:32;12.50;99.90
25438;DHT22;13364;49.084;9.978;2022-09-12T02:39:07;11.60;99.90
25438;DHT22;13364;49.084;9.978;2022-09-12T02:41:35;11.70;99.90
25438;DHT22;13364;49.084;9.978;2022-09-12T02:44:03;11.60;99.90
25438;DHT22;13364;49.084;9.978;2022-09-12T02:46:39;11.60;99.90
25438;DHT22;13364;49.084;9.978;2022-09-12T02:49:07;9.60;99.90
25438;DHT22;13364;49.084;9.978;2022-09-12T02:51:35;11.60;99.90
25438;DHT22;13364;49.084;9.978;2022-09-12T02:54:03;11.50;99.90
25438;DHT22;13364;49.084;9.978;2022-09-12T02:56:32;11.50;99.90
25438;DHT22;13364;49.084;9.978;2022-09-12T02:59:07;11.50;99.90
25438;DHT22;13364;49.084;9.978;2022-09-12T03:07:43;11.50;99.90
25438;DHT22;13364;49.084;9.978;2022-09-12T03:13:04;11.50;99.90
25438;DHT22;13364;49.084;9.978;2022-09-12T03:21:21;11.50;99.90
25438;DHT22;13364;49.084;9.978;2022-09-12T03:23:59;11.40;99.90
25438;DHT22;13364;49.084;9.978;2022-09-12T03:26:34;11.40;99.90
25438;DHT22;13364;49.084;9.978;2022-09-12T03:29:05;12.60;99.90
25438;DHT22;13364;49.084;9.978;2022-09-12T03:31:33;11.40;99.90
25438;DHT22;13364;49.084;9.978;2022-09-12T03:34:00;12.00;99.90
25438;DHT22;13364;49.084;9.978;2022-09-12T03:36:28;11.50;99.90
25438;DHT22;13364;49.084;9.978;2022-09-12T03:38:56;11.20;99.90
25438;DHT22;13364;49.084;9.978;2022-09-12T03:41:23;11.80;99.90
25438;DHT22;13364;49.084;9.978;2022-09-12T03:43:50;11.30;99.90
25438;DHT22;13364;49.084;9.978;2022-09-12T03:46:17;11.60;99.90
25438;DHT22;13364;49.084;9.978;2022-09-12T03:48:44;12.60;99.90
25438;DHT22;13364;49.084;9.978;2022-09-12T03:51:11;11.60;99.90
25438;DHT22;13364;49.084;9.978;2022-09-12T03:53:38;12.10;99.90
25438;DHT22;13364;49.084;9.978;2022-09-12T03:56:10;12.10;99.90
25438;DHT22;13364;49.084;9.978;2022-09-12T03:58:37;11.90;99.90
25438;DHT22;13364;49.084;9.978;2022-09-12T04:01:16;11.00;99.90
25438;DHT22;13364;49.084;9.978;2022-09-12T04:03:47;11.00;99.90
25438;DHT22;13364;49.084;9.978;2022-09-12T04:06:17;11.50;99.90
25438;DHT22;13364;49.084;9.978;2022-09-12T04:08:47;11.60;99.90
25438;DHT22;13364;49.084;9.978;2022-09-12T04:11:15;11.90;99.90
25438;DHT22;13364;49.084;9.978;2022-09-12T04:13:44;11.00;99.90
25438;DHT22;13364;49.084;9.978;2022-09-12T04:16:12;10.90;99.90
25438;DHT22;13364;49.084;9.978;2022-09-12T04:18:40;10.90;99.90
25438;DHT22;13364;49.084;9.978;2022-09-12T04:21:16;11.20;99.90
25438;DHT22;13364;49.084;9.978;2022-09-12T04:23:43;10.90;99.90
25438;DHT22;13364;49.084;9.978;2022-09-12T04:26:11;12.10;99.90
25438;DHT22;13364;49.084;9.978;2022-09-12T04:28:40;11.90;99.90
25438;DHT22;13364;49.084;9.978;2022-09-12T04:31:13;11.20;99.90
25438;DHT22;13364;49.084;9.978;2022-09-12T04:33:42;11.90;99.90
25438;DHT22;13364;49.084;9.978;2022-09-12T04:36:14;12.20;99.90
25438;DHT22;13364;49.084;9.978;2022-09-12T04:38:43;12.40;99.90
25438;DHT22;13364;49.084;9.978;2022-09-12T04:41:31;12.40;99.90
25438;DHT22;13364;49.084;9.978;2022-09-12T04:44:00;10.90;99.90
25438;DHT22;13364;49.084;9.978;2022-09-12T04:46:29;10.90;99.90
25438;DHT22;13364;49.084;9.978;2022-09-12T04:48:56;10.80;99.90
25438;DHT22;13364;49.084;9.978;2022-09-12T04:51:26;12.10;99.90
25438;DHT22;13364;49.084;9.978;2022-09-12T04:53:59;12.10;99.90
25438;DHT22;13364;49.084;9.978;2022-09-12T04:56:28;12.40;99.90
25438;DHT22;13364;49.084;9.978;2022-09-12T04:58:57;11.90;99.90
25438;DHT22;13364;49.084;9.978;2022-09-12T05:01:24;11.10;99.90
25438;DHT22;13364;49.084;9.978;2022-09-12T05:03:53;11.60;99.90
25438;DHT22;13364;49.084;9.978;2022-09-12T05:06:22;11.00;99.90
25438;DHT22;13364;49.084;9.978;2022-09-12T05:08:51;11.80;99.90
25438;DHT22;13364;49.084;9.978;2022-09-12T05:11:21;11.30;99.90
25438;DHT22;13364;49.084;9.978;2022-09-12T05:13:56;11.10;99.90
25438;DHT22;13364;49.084;9.978;2022-09-12T05:16:24;11.90;99.90
25438;DHT22;13364;49.084;9.978;2022-09-12T05:18:52;11.80;99.90
25438;DHT22;13364;49.084;9.978;2022-09-12T05:21:20;11.80;99.90
25438;DHT22;13364;49.084;9.978;2022-09-12T05:23:52;10.90;99.90
25438;DHT22;13364;49.084;9.978;2022-09-12T05:26:20;11.30;99.90
25438;DHT22;13364;49.084;9.978;2022-09-12T05:28:48;11.70;99.90
25438;DHT22;13364;49.084;9.978;2022-09-12T05:31:21;12.20;99.90
25438;DHT22;13364;49.084;9.978;2022-09-12T05:33:50;12.30;99.90
25438;DHT22;13364;49.084;9.978;2022-09-12T05:36:23;11.90;99.90
25438;DHT22;13364;49.084;9.978;2022-09-12T05:38:50;11.00;99.90
25438;DHT22;13364;49.084;9.978;2022-09-12T05:41:19;12.10;99.90
25438;DHT22;13364;49.084;9.978;2022-09-12T05:43:59;11.70;99.90
25438;DHT22;13364;49.084;9.978;2022-09-12T05:46:31;11.50;99.90
25438;DHT22;13364;49.084;9.978;2022-09-12T05:49:03;12.60;99.90
25438;DHT22;13364;49.084;9.978;2022-09-12T05:51:36;12.50;99.90
25438;DHT22;13364;49.084;9.978;2022-09-12T05:54:08;11.80;99.90
25438;DHT22;13364;49.084;9.978;2022-09-12T05:56:40;11.50;99.90
25438;DHT22;13364;49.084;9.978;2022-09-12T05:59:17;11.50;99.90
25438;DHT22;13364;49.084;9.978;2022-09-12T06:01:44;11.20;99.90
25438;DHT22;13364;49.084;9.978;2022-09-12T06:04:12;11.70;99.90
25438;DHT22;13364;49.084;9.978;2022-09-12T06:06:41;11.90;99.90
25438;DHT22;13364;49.084;9.978;2022-09-12T06:09:12;11.80;99.90
25438;DHT22;13364;49.084;9.978;2022-09-12T06:11:40;12.00;99.90
25438;DHT22;13364;49.084;9.978;2022-09-12T06:14:09;11.40;99.90
25438;DHT22;13364;49.084;9.978;2022-09-12T06:16:37;12.20;99.90
25438;DHT22;13364;49.084;9.978;2022-09-12T06:19:06;11.80;99.90
25438;DHT22;13364;49.084;9.978;2022-09-12T06:21:34;12.00;99.90
25438;DHT22;13364;49.084;9.978;2022-09-12T06:24:01;12.10;99.90
25438;DHT22;13364;49.084;9.978;2022-09-12T06:26:28;11.60;99.90
25438;DHT22;13364;49.084;9.978;2022-09-12T06:28:59;11.60;99.90
25438;DHT22;13364;49.084;9.978;2022-09-12T06:31:31;11.70;99.90
25438;DHT22;13364;49.084;9.978;2022-09-12T06:34:02;11.70;99.90
25438;DHT22;13364;49.084;9.978;2022-09-12T06:36:32;12.00;99.90
25438;DHT22;13364;49.084;9.978;2022-09-12T06:39:00;11.90;99.90
25438;DHT22;13364;49.084;9.978;2022-09-12T06:41:29;11.90;99.90
25438;DHT22;13364;49.084;9.978;2022-09-12T06:43:57;12.10;99.90
25438;DHT22;13364;49.084;9.978;2022-09-12T06:46:26;12.10;99.90
25438;DHT22;13364;49.084;9.978;2022-09-12T06:48:57;12.10;99.90
25438;DHT22;13364;49.084;9.978;2022-09-12T06:51:26;12.20;99.90
25438;DHT22;13364;49.084;9.978;2022-09-12T06:53:55;12.30;99.90
25438;DHT22;13364;49.084;9.978;2022-09-12T06:56:25;12.30;99.90
25438;DHT22;13364;49.084;9.978;2022-09-12T06:58:54;12.40;99.90
25438;DHT22;13364;49.084;9.978;2022-09-12T07:01:27;12.50;99.90
25438;DHT22;13364;49.084;9.978;2022-09-12T07:04:00;12.60;99.90
25438;DHT22;13364;49.084;9.978;2022-09-12T07:06:29;12.60;99.90
25438;DHT22;13364;49.084;9.978;2022-09-12T07:09:01;12.70;99.90
25438;DHT22;13364;49.084;9.978;2022-09-12T07:11:31;12.80;99.90
25438;DHT22;13364;49.084;9.978;2022-09-12T07:13:58;12.90;99.90
25438;DHT22;13364;49.084;9.978;2022-09-12T07:16:26;13.00;99.90
25438;DHT22;13364;49.084;9.978;2022-09-12T07:18:57;13.10;99.90
25438;DHT22;13364;49.084;9.978;2022-09-12T07:21:24;13.20;99.90
25438;DHT22;13364;49.084;9.978;2022-09-12T07:23:52;13.30;99.90
25438;DHT22;13364;49.084;9.978;2022-09-12T07:26:21;13.40;99.90
25438;DHT22;13364;49.084;9.978;2022-09-12T07:28:51;13.50;99.90
25438;DHT22;13364;49.084;9.978;2022-09-12T07:31:33;13.70;99.90
25438;DHT22;13364;49.084;9.978;2022-09-12T07:34:04;13.80;99.90
25438;DHT22;13364;49.084;9.978;2022-09-12T07:36:32;14.00;99.90
25438;DHT22;13364;49.084;9.978;2022-09-12T07:38:59;14.10;99.90
25438;DHT22;13364;49.084;9.978;2022-09-12T07:41:28;14.30;99.90
25438;DHT22;13364;49.084;9.978;2022-09-12T07:43:57;14.40;99.90
25438;DHT22;13364;49.084;9.978;2022-09-12T07:46:26;14.50;99.90
25438;DHT22;13364;49.084;9.978;2022-09-12T07:48:55;14.60;99.90
25438;DHT22;13364;49.084;9.978;2022-09-12T07:51:24;14.80;99.90
25438;DHT22;13364;49.084;9.978;2022-09-12T07:53:51;14.90;99.90
25438;DHT22;13364;49.084;9.978;2022-09-12T07:56:19;15.00;99.90
25438;DHT22;13364;49.084;9.978;2022-09-12T07:58:49;15.10;99.90
25438;DHT22;13364;49.084;9.978;2022-09-12T08:01:20;15.20;99.90
25438;DHT22;13364;49.084;9.978;2022-09-12T08:03:53;15.30;99.90
25438;DHT22;13364;49.084;9.978;2022-09-12T08:06:21;15.40;99.90
25438;DHT22;13364;49.084;9.978;2022-09-12T08:08:50;15.50;99.90
25438;DHT22;13364;49.084;9.978;2022-09-12T08:11:19;15.60;99.90
25438;DHT22;13364;49.084;9.978;2022-09-12T08:13:47;15.80;99.90
25438;DHT22;13364;49.084;9.978;2022-09-12T08:16:23;15.90;99.90
25438;DHT22;13364;49.084;9.978;2022-09-12T08:18:51;16.10;99.90
25438;DHT22;13364;49.084;9.978;2022-09-12T08:21:20;16.30;99.90
25438;DHT22;13364;49.084;9.978;2022-09-12T08:23:51;16.50;99.90
25438;DHT22;13364;49.084;9.978;2022-09-12T08:26:19;16.60;99.90
25438;DHT22;13364;49.084;9.978;2022-09-12T08:28:46;16.80;99.90
25438;DHT22;13364;49.084;9.978;2022-09-12T08:31:16;17.00;99.90
25438;DHT22;13364;49.084;9.978;2022-09-12T08:33:44;17.30;99.90
25438;DHT22;13364;49.084;9.978;2022-09-12T08:36:14;17.50;99.90
25438;DHT22;13364;49.084;9.978;2022-09-12T08:38:42;17.70;99.90
25438;DHT22;13364;49.084;9.978;2022-09-12T08:49:44;18.80;99.90
25438;DHT22;13364;49.084;9.978;2022-09-12T08:52:18;19.00;99.90
25438;DHT22;13364;49.084;9.978;2022-09-12T08:54:47;19.30;99.90
25438;DHT22;13364;49.084;9.978;2022-09-12T08:57:16;19.60;99.90
25438;DHT22;13364;49.084;9.978;2022-09-12T08:59:45;19.80;99.90
25438;DHT22;13364;49.084;9.978;2022-09-12T09:05:18;20.20;99.90
25438;DHT22;13364;49.084;9.978;2022-09-12T09:08:41;20.50;99.90
25438;DHT22;13364;49.084;9.978;2022-09-12T09:16:45;20.90;99.90
25438;DHT22;13364;49.084;9.978;2022-09-12T09:19:17;21.00;99.90
25438;DHT22;13364;49.084;9.978;2022-09-12T09:24:22;21.20;99.90
25438;DHT22;13364;49.084;9.978;2022-09-12T09:27:00;21.30;99.90
25438;DHT22;13364;49.084;9.978;2022-09-12T09:29:34;21.30;99.90
25438;DHT22;13364;49.084;9.978;2022-09-12T09:32:14;21.30;99.90
25438;DHT22;13364;49.084;9.978;2022-09-12T09:34:43;21.30;99.90
25438;DHT22;13364;49.084;9.978;2022-09-12T09:40:22;21.30;99.90
25438;DHT22;13364;49.084;9.978;2022-09-12T09:43:11;21.40;99.90
25438;DHT22;13364;49.084;9.978;2022-09-12T09:45:41;21.40;99.90
25438;DHT22;13364;49.084;9.978;2022-09-12T09:48:31;21.40;99.90
25438;DHT22;13364;49.084;9.978;2022-09-12T09:51:02;21.40;99.90
25438;DHT22;13364;49.084;9.978;2022-09-12T09:56:40;21.60;99.90
25438;DHT22;13364;49.084;9.978;2022-09-12T10:02:36;21.90;99.90
25438;DHT22;13364;49.084;9.978;2022-09-12T10:04:52;22.00;99.90
25438;DHT22;13364;49.084;9.978;2022-09-12T10:07:21;22.10;99.90
25438;DHT22;13364;49.084;9.978;2022-09-12T10:10:16;22.30;99.90
25438;DHT22;13364;49.084;9.978;2022-09-12T10:12:44;22.40;99.90
25438;DHT22;13364;49.084;9.978;2022-09-12T10:15:25;22.50;99.90
25438;DHT22;13364;49.084;9.978;2022-09-12T10:17:52;22.70;99.90
25438;DHT22;13364;49.084;9.978;2022-09-12T10:26:07;22.90;99.90
25438;DHT22;13364;49.084;9.978;2022-09-12T10:28:38;23.00;99.90
25438;DHT22;13364;49.084;9.978;2022-09-12T10:31:07;23.00;99.90
25438;DHT22;13364;49.084;9.978;2022-09-12T10:33:39;23.10;99.90
25438;DHT22;13364;49.084;9.978;2022-09-12T10:36:07;23.10;99.90
25438;DHT22;13364;49.084;9.978;2022-09-12T10:38:34;23.10;99.90
25438;DHT22;13364;49.084;9.978;2022-09-12T10:41:05;23.10;99.90
25438;DHT22;13364;49.084;9.978;2022-09-12T10:43:33;23.10;99.90
25438;DHT22;13364;49.084;9.978;2022-09-12T10:48:42;23.60;99.90
25438;DHT22;13364;49.084;9.978;2022-09-12T10:51:30;23.70;99.90
25438;DHT22;13364;49.084;9.978;2022-09-12T10:53:59;23.70;99.90
25438;DHT22;13364;49.084;9.978;2022-09-12T11:07:45;23.80;99.90
25438;DHT22;13364;49.084;9.978;2022-09-12T11:24:01;24.30;99.90
25438;DHT22;13364;49.084;9.978;2022-09-12T11:26:43;24.20;99.90
25438;DHT22;13364;49.084;9.978;2022-09-12T11:29:56;24.20;99.90
25438;DHT22;13364;49.084;9.978;2022-09-12T11:39:38;24.60;99.90
25438;DHT22;13364;49.084;9.978;2022-09-12T11:42:15;24.70;99.90
25438;DHT22;13364;49.084;9.978;2022-09-12T11:44:59;24.70;99.90
25438;DHT22;13364;49.084;9.978;2022-09-12T11:47:40;24.60;99.90
25438;DHT22;13364;49.084;9.978;2022-09-12T11:50:24;24.40;99.90
25438;DHT22;13364;49.084;9.978;2022-09-12T11:52:54;24.20;99.90
25438;DHT22;13364;49.084;9.978;2022-09-12T11:55:27;24.10;99.90
25438;DHT22;13364;49.084;9.978;2022-09-12T11:57:56;24.00;99.90
25438;DHT22;13364;49.084;9.978;2022-09-12T12:00:40;23.90;99.90
25438;DHT22;13364;49.084;9.978;2022-09-12T12:03:17;23.90;99.90
25438;DHT22;13364;49.084;9.978;2022-09-12T12:08:15;24.00;99.90
25438;DHT22;13364;49.084;9.978;2022-09-12T12:10:57;24.20;99.90
25438;DHT22;13364;49.084;9.978;2022-09-12T12:16:19;24.50;99.90
25438;DHT22;13364;49.084;9.978;2022-09-12T12:18:53;24.60;99.90
25438;DHT22;13364;49.084;9.978;2022-09-12T12:24:21;24.70;99.90
25438;DHT22;13364;49.084;9.978;2022-09-12T12:34:32;24.90;99.90
25438;DHT22;13364;49.084;9.978;2022-09-12T12:45:00;24.70;99.90
25438;DHT22;13364;49.084;9.978;2022-09-12T12:47:28;24.40;99.90
25438;DHT22;13364;49.084;9.978;2022-09-12T12:58:30;24.20;99.90
25438;DHT22;13364;49.084;9.978;2022-09-12T13:01:16;24.30;99.90
25438;DHT22;13364;49.084;9.978;2022-09-12T13:03:51;24.40;99.90
25438;DHT22;13364;49.084;9.978;2022-09-12T13:06:36;24.60;99.90
25438;DHT22;13364;49.084;9.978;2022-09-12T13:09:19;24.70;99.90
25438;DHT22;13364;49.084;9.978;2022-09-12T13:11:56;24.60;99.90
25438;DHT22;13364;49.084;9.978;2022-09-12T13:14:36;24.40;99.90
25438;DHT22;13364;49.084;9.978;2022-09-12T13:22:54;23.80;99.90
25438;DHT22;13364;49.084;9.978;2022-09-12T13:25:32;23.80;99.90
25438;DHT22;13364;49.084;9.978;2022-09-12T13:33:57;23.80;99.90
25438;DHT22;13364;49.084;9.978;2022-09-12T13:45:22;25.00;99.90
25438;DHT22;13364;49.084;9.978;2022-09-12T13:47:56;25.40;99.90
25438;DHT22;13364;49.084;9.978;2022-09-12T13:52:59;25.70;99.90
25438;DHT22;13364;49.084;9.978;2022-09-12T13:55:31;25.80;97.90
25438;DHT22;13364;49.084;9.978;2022-09-12T13:58:03;25.80;99.90
25438;DHT22;13364;49.084;9.978;2022-09-12T14:00:32;25.90;99.90
25438;DHT22;13364;49.084;9.978;2022-09-12T14:03:00;26.00;99.20
25438;DHT22;13364;49.084;9.978;2022-09-12T14:05:54;26.00;99.90
25438;DHT22;13364;49.084;9.978;2022-09-12T14:08:23;26.10;99.90
25438;DHT22;13364;49.084;9.978;2022-09-12T14:10:50;26.20;98.30
25438;DHT22;13364;49.084;9.978;2022-09-12T14:13:20;26.20;96.80
25438;DHT22;13364;49.084;9.978;2022-09-12T14:15:50;26.40;94.70
25438;DHT22;13364;49.084;9.978;2022-09-12T14:18:26;26.40;94.70
25438;DHT22;13364;49.084;9.978;2022-09-12T14:20:56;26.40;93.70
25438;DHT22;13364;49.084;9.978;2022-09-12T14:23:29;26.30;92.70
25438;DHT22;13364;49.084;9.978;2022-09-12T14:26:00;26.30;93.00
25438;DHT22;13364;49.084;9.978;2022-09-12T14:28:43;26.30;88.70
25438;DHT22;13364;49.084;9.978;2022-09-12T14:31:23;26.20;87.50
25438;DHT22;13364;49.084;9.978;2022-09-12T14:36:35;26.20;84.80
25438;DHT22;13364;49.084;9.978;2022-09-12T14:44:33;25.80;83.00
25438;DHT22;13364;49.084;9.978;2022-09-12T14:47:11;25.60;83.20
25438;DHT22;13364;49.084;9.978;2022-09-12T14:49:40;25.50;80.40
25438;DHT22;13364;49.084;9.978;2022-09-12T14:52:34;25.30;82.70
25438;DHT22;13364;49.084;9.978;2022-09-12T14:55:31;25.30;85.10
25438;DHT22;13364;49.084;9.978;2022-09-12T15:01:28;25.30;85.90
25438;DHT22;13364;49.084;9.978;2022-09-12T15:03:55;25.20;83.30
25438;DHT22;13364;49.084;9.978;2022-09-12T15:06:38;25.20;83.00
25438;DHT22;13364;49.084;9.978;2022-09-12T15:12:12;25.10;84.50
25438;DHT22;13364;49.084;9.978;2022-09-12T15:14:39;25.00;86.00
25438;DHT22;13364;49.084;9.978;2022-09-12T15:17:06;25.10;87.20
25438;DHT22;13364;49.084;9.978;2022-09-12T15:19:33;25.00;84.10
25438;DHT22;13364;49.084;9.978;2022-09-12T15:22:00;25.00;84.90
25438;DHT22;13364;49.084;9.978;2022-09-12T15:24:27;24.80;84.90
25438;DHT22;13364;49.084;9.978;2022-09-12T15:26:54;24.70;85.80
25438;DHT22;13364;49.084;9.978;2022-09-12T15:29:22;24.60;86.30
25438;DHT22;13364;49.084;9.978;2022-09-12T15:31:50;24.60;86.50
25438;DHT22;13364;49.084;9.978;2022-09-12T15:34:17;24.50;85.00
25438;DHT22;13364;49.084;9.978;2022-09-12T15:36:45;24.40;85.70
25438;DHT22;13364;49.084;9.978;2022-09-12T15:39:12;24.40;86.50
25438;DHT22;13364;49.084;9.978;2022-09-12T15:41:40;24.30;84.20
25438;DHT22;13364;49.084;9.978;2022-09-12T15:44:10;24.20;85.20
25438;DHT22;13364;49.084;9.978;2022-09-12T15:46:39;24.10;87.70
25438;DHT22;13364;49.084;9.978;2022-09-12T15:49:06;24.00;87.10
25438;DHT22;13364;49.084;9.978;2022-09-12T15:51:33;23.90;87.40
25438;DHT22;13364;49.084;9.978;2022-09-12T15:54:02;23.80;88.80
25438;DHT22;13364;49.084;9.978;2022-09-12T15:56:30;23.80;88.30
25438;DHT22;13364;49.084;9.978;2022-09-12T15:59:05;23.70;90.20
25438;DHT22;13364;49.084;9.978;2022-09-12T16:01:32;23.70;88.60
25438;DHT22;13364;49.084;9.978;2022-09-12T16:04:01;23.60;86.40
25438;DHT22;13364;49.084;9.978;2022-09-12T16:06:29;23.40;86.80
25438;DHT22;13364;49.084;9.978;2022-09-12T16:09:03;23.30;87.20
25438;DHT22;13364;49.084;9.978;2022-09-12T16:11:30;23.20;88.60
25438;DHT22;13364;49.084;9.978;2022-09-12T16:13:57;23.10;85.50
25438;DHT22;13364;49.084;9.978;2022-09-12T16:16:24;23.00;89.00
25438;DHT22;13364;49.084;9.978;2022-09-12T16:18:52;23.00;86.20
25438;DHT22;13364;49.084;9.978;2022-09-12T16:21:19;22.80;85.60
25438;DHT22;13364;49.084;9.978;2022-09-12T16:23:47;22.70;86.30
25438;DHT22;13364;49.084;9.978;2022-09-12T16:29:39;22.40;85.70
25438;DHT22;13364;49.084;9.978;2022-09-12T16:32:06;22.20;90.00
25438;DHT22;13364;49.084;9.978;2022-09-12T16:34:33;22.20;90.90
25438;DHT22;13364;49.084;9.978;2022-09-12T16:37:00;22.00;87.30
25438;DHT22;13364;49.084;9.978;2022-09-12T16:42:53;21.90;88.10
25438;DHT22;13364;49.084;9.978;2022-09-12T16:45:25;21.80;89.40
25438;DHT22;13364;49.084;9.978;2022-09-12T16:47:52;21.70;89.80
25438;DHT22;13364;49.084;9.978;2022-09-12T16:50:19;21.60;89.80
25438;DHT22;13364;49.084;9.978;2022-09-12T16:52:46;21.50;89.90
25438;DHT22;13364;49.084;9.978;2022-09-12T16:55:13;21.50;90.00
25438;DHT22;13364;49.084;9.978;2022-09-12T16:57:41;21.40;91.40
25438;DHT22;13364;49.084;9.978;2022-09-12T17:00:08;21.30;92.30
25438;DHT22;13364;49.084;9.978;2022-09-12T17:02:35;21.30;92.50
25438;DHT22;13364;49.084;9.978;2022-09-12T17:05:03;21.20;92.90
25438;DHT22;13364;49.084;9.978;2022-09-12T17:07:30;21.10;93.40
25438;DHT22;13364;49.084;9.978;2022-09-12T17:09:57;21.00;94.00
25438;DHT22;13364;49.084;9.978;2022-09-12T17:12:24;21.00;94.80
25438;DHT22;13364;49.084;9.978;2022-09-12T17:14:51;20.90;95.40
25438;DHT22;13364;49.084;9.978;2022-09-12T17:17:18;20.80;96.50
25438;DHT22;13364;49.084;9.978;2022-09-12T17:19:45;20.70;96.50
25438;DHT22;13364;49.084;9.978;2022-09-12T17:22:12;20.60;98.60
25438;DHT22;13364;49.084;9.978;2022-09-12T17:24:39;20.50;98.70
25438;DHT22;13364;49.084;9.978;2022-09-12T17:27:08;20.40;99.10
25438;DHT22;13364;49.084;9.978;2022-09-12T17:29:35;20.30;99.90
25438;DHT22;13364;49.084;9.978;2022-09-12T17:32:34;20.20;99.90
25438;DHT22;13364;49.084;9.978;2022-09-12T17:35:01;20.10;99.90
25438;DHT22;13364;49.084;9.978;2022-09-12T17:37:29;19.90;99.90
25438;DHT22;13364;49.084;9.978;2022-09-12T17:39:56;19.80;99.90
25438;DHT22;13364;49.084;9.978;2022-09-12T17:42:23;19.70;99.90
25438;DHT22;13364;49.084;9.978;2022-09-12T17:44:50;19.60;99.90
25438;DHT22;13364;49.084;9.978;2022-09-12T17:47:17;19.40;99.90
25438;DHT22;13364;49.084;9.978;2022-09-12T17:49:44;19.30;99.90
25438;DHT22;13364;49.084;9.978;2022-09-12T17:52:11;19.20;99.90
25438;DHT22;13364;49.084;9.978;2022-09-12T17:54:49;19.10;99.90
25438;DHT22;13364;49.084;9.978;2022-09-12T17:57:16;19.10;99.90
25438;DHT22;13364;49.084;9.978;2022-09-12T17:59:44;19.00;99.90
25438;DHT22;13364;49.084;9.978;2022-09-12T18:02:11;18.90;99.90
25438;DHT22;13364;49.084;9.978;2022-09-12T18:04:39;18.80;99.90
25438;DHT22;13364;49.084;9.978;2022-09-12T18:07:07;18.70;99.90
25438;DHT22;13364;49.084;9.978;2022-09-12T18:09:34;18.70;99.90
25438;DHT22;13364;49.084;9.978;2022-09-12T18:12:02;18.60;99.90
25438;DHT22;13364;49.084;9.978;2022-09-12T18:14:29;18.50;99.90
25438;DHT22;13364;49.084;9.978;2022-09-12T18:16:56;18.40;99.90
25438;DHT22;13364;49.084;9.978;2022-09-12T18:19:23;18.30;99.90
25438;DHT22;13364;49.084;9.978;2022-09-12T18:21:50;18.20;99.90
25438;DHT22;13364;49.084;9.978;2022-09-12T18:24:18;18.10;99.90
25438;DHT22;13364;49.084;9.978;2022-09-12T18:26:45;18.10;99.90
25438;DHT22;13364;49.084;9.978;2022-09-12T18:29:13;18.00;99.90
25438;DHT22;13364;49.084;9.978;2022-09-12T18:31:43;17.90;99.90
25438;DHT22;13364;49.084;9.978;2022-09-12T18:34:12;17.90;99.90
25438;DHT22;13364;49.084;9.978;2022-09-12T18:36:41;17.80;99.90
25438;DHT22;13364;49.084;9.978;2022-09-12T18:39:08;17.80;99.90
25438;DHT22;13364;49.084;9.978;2022-09-12T18:41:35;17.80;99.90
25438;DHT22;13364;49.084;9.978;2022-09-12T18:44:03;17.70;99.90
25438;DHT22;13364;49.084;9.978;2022-09-12T18:49:51;17.60;99.90
25438;DHT22;13364;49.084;9.978;2022-09-12T18:52:18;17.50;99.90
25438;DHT22;13364;49.084;9.978;2022-09-12T18:54:45;17.40;99.90
25438;DHT22;13364;49.084;9.978;2022-09-12T18:57:12;17.40;99.90
25438;DHT22;13364;49.084;9.978;2022-09-12T18:59:39;17.20;99.90
25438;DHT22;13364;49.084;9.978;2022-09-12T19:02:08;17.20;99.90
25438;DHT22;13364;49.084;9.978;2022-09-12T19:04:37;17.20;99.90
25438;DHT22;13364;49.084;9.978;2022-09-12T19:07:04;17.10;99.90
25438;DHT22;13364;49.084;9.978;2022-09-12T19:09:31;17.10;99.90
25438;DHT22;13364;49.084;9.978;2022-09-12T19:11:59;17.00;99.90
25438;DHT22;13364;49.084;9.978;2022-09-12T19:14:26;17.00;99.90